sensor_id;sensor_type;location;lat;lon;timestamp;P1;durP1;ratioP1;P2;durP2;ratioP2
82495;SDS011;72133;42.522;24.800;2024-03-08T00:02:15;12.35;;;10.02;;
82495;SDS011;72133;42.522;24.800;2024-03-08T00:04:40;13.32;;;10.15;;
82495;SDS011;72133;42.522;24.800;2024-03-08T00:07:10;10.10;;;8.80;;
82495;SDS011;72133;42.522;24.800;2024-03-08T00:09:36;12.30;;;9.38;;
82495;SDS011;72133;42.522;24.800;2024-03-08T00:12:01;12.80;;;10.02;;
82495;SDS011;72133;42.522;24.800;2024-03-08T00:14:27;11.40;;;9.25;;
82495;SDS011;72133;42.522;24.800;2024-03-08T00:16:52;11.68;;;9.40;;
82495;SDS011;72133;42.522;24.800;2024-03-08T00:19:19;11.65;;;9.80;;
82495;SDS011;72133;42.522;24.800;2024-03-08T00:21:45;12.85;;;10.48;;
82495;SDS011;72133;42.522;24.800;2024-03-08T00:24:10;12.27;;;9.15;;
82495;SDS011;72133;42.522;24.800;2024-03-08T00:26:37;12.68;;;9.30;;
82495;SDS011;72133;42.522;24.800;2024-03-08T00:29:02;12.93;;;10.10;;
82495;SDS011;72133;42.522;24.800;2024-03-08T00:31:28;10.88;;;8.88;;
82495;SDS011;72133;42.522;24.800;2024-03-08T00:33:56;13.57;;;9.82;;
82495;SDS011;72133;42.522;24.800;2024-03-08T00:36:22;11.75;;;9.15;;
82495;SDS011;72133;42.522;24.800;2024-03-08T00:38:48;13.70;;;9.40;;
82495;SDS011;72133;42.522;24.800;2024-03-08T00:41:13;13.65;;;9.98;;
82495;SDS011;72133;42.522;24.800;2024-03-08T00:43:39;11.98;;;9.45;;
82495;SDS011;72133;42.522;24.800;2024-03-08T00:46:04;12.90;;;10.85;;
82495;SDS011;72133;42.522;24.800;2024-03-08T00:48:30;12.55;;;10.18;;
82495;SDS011;72133;42.522;24.800;2024-03-08T00:50:56;12.15;;;10.00;;
82495;SDS011;72133;42.522;24.800;2024-03-08T00:53:22;13.50;;;10.57;;
82495;SDS011;72133;42.522;24.800;2024-03-08T00:55:48;15.75;;;12.02;;
82495;SDS011;72133;42.522;24.800;2024-03-08T00:58:14;13.55;;;10.65;;
82495;SDS011;72133;42.522;24.800;2024-03-08T01:00:39;13.32;;;10.48;;
82495;SDS011;72133;42.522;24.800;2024-03-08T01:03:05;14.88;;;11.85;;
82495;SDS011;72133;42.522;24.800;2024-03-08T01:05:32;14.40;;;10.13;;
82495;SDS011;72133;42.522;24.800;2024-03-08T01:07:57;13.32;;;10.82;;
82495;SDS011;72133;42.522;24.800;2024-03-08T01:10:23;13.77;;;11.32;;
82495;SDS011;72133;42.522;24.800;2024-03-08T01:12:49;15.10;;;11.45;;
82495;SDS011;72133;42.522;24.800;2024-03-08T01:15:15;13.50;;;10.73;;
82495;SDS011;72133;42.522;24.800;2024-03-08T01:17:40;14.68;;;11.38;;
82495;SDS011;72133;42.522;24.800;2024-03-08T01:20:06;13.30;;;10.52;;
82495;SDS011;72133;42.522;24.800;2024-03-08T01:22:33;13.73;;;11.20;;
82495;SDS011;72133;42.522;24.800;2024-03-08T01:24:59;15.02;;;11.57;;
82495;SDS011;72133;42.522;24.800;2024-03-08T01:27:24;13.32;;;10.50;;
82495;SDS011;72133;42.522;24.800;2024-03-08T01:29:50;12.23;;;10.35;;
82495;SDS011;72133;42.522;24.800;2024-03-08T01:32:16;14.45;;;10.77;;
82495;SDS011;72133;42.522;24.800;2024-03-08T01:34:42;14.55;;;10.98;;
82495;SDS011;72133;42.522;24.800;2024-03-08T01:37:07;12.40;;;9.77;;
82495;SDS011;72133;42.522;24.800;2024-03-08T01:39:33;13.73;;;10.10;;
82495;SDS011;72133;42.522;24.800;2024-03-08T01:41:59;12.95;;;10.32;;
82495;SDS011;72133;42.522;24.800;2024-03-08T01:44:25;12.70;;;10.43;;
82495;SDS011;72133;42.522;24.800;2024-03-08T01:46:51;12.75;;;10.57;;
82495;SDS011;72133;42.522;24.800;2024-03-08T01:49:17;14.30;;;10.60;;
82495;SDS011;72133;42.522;24.800;2024-03-08T01:51:45;15.93;;;11.13;;
82495;SDS011;72133;42.522;24.800;2024-03-08T01:54:11;14.85;;;10.25;;
82495;SDS011;72133;42.522;24.800;2024-03-08T01:56:37;13.15;;;10.90;;
82495;SDS011;72133;42.522;24.800;2024-03-08T01:59:04;14.10;;;10.93;;
82495;SDS011;72133;42.522;24.800;2024-03-08T02:01:31;15.13;;;10.95;;
82495;SDS011;72133;42.522;24.800;2024-03-08T02:03:58;13.60;;;10.30;;
82495;SDS011;72133;42.522;24.800;2024-03-08T02:06:24;14.43;;;12.00;;
82495;SDS011;72133;42.522;24.800;2024-03-08T02:08:49;14.38;;;11.95;;
82495;SDS011;72133;42.522;24.800;2024-03-08T02:11:15;13.27;;;10.88;;
82495;SDS011;72133;42.522;24.800;2024-03-08T02:13:41;14.30;;;11.07;;
82495;SDS011;72133;42.522;24.800;2024-03-08T02:16:06;14.93;;;11.57;;
82495;SDS011;72133;42.522;24.800;2024-03-08T02:18:33;15.13;;;11.13;;
82495;SDS011;72133;42.522;24.800;2024-03-08T02:21:05;16.45;;;12.45;;
82495;SDS011;72133;42.522;24.800;2024-03-08T02:23:31;15.10;;;11.70;;
82495;SDS011;72133;42.522;24.800;2024-03-08T02:25:57;14.98;;;12.38;;
82495;SDS011;72133;42.522;24.800;2024-03-08T02:28:23;16.65;;;11.90;;
82495;SDS011;72133;42.522;24.800;2024-03-08T02:30:50;15.38;;;11.60;;
82495;SDS011;72133;42.522;24.800;2024-03-08T02:33:17;15.65;;;12.38;;
82495;SDS011;72133;42.522;24.800;2024-03-08T02:35:43;16.55;;;13.10;;
82495;SDS011;72133;42.522;24.800;2024-03-08T02:38:16;16.42;;;12.52;;
82495;SDS011;72133;42.522;24.800;2024-03-08T02:40:47;17.02;;;13.05;;
82495;SDS011;72133;42.522;24.800;2024-03-08T02:43:13;16.92;;;13.43;;
82495;SDS011;72133;42.522;24.800;2024-03-08T02:45:40;18.73;;;13.32;;
82495;SDS011;72133;42.522;24.800;2024-03-08T02:48:07;16.00;;;12.70;;
82495;SDS011;72133;42.522;24.800;2024-03-08T02:50:33;17.80;;;12.95;;
82495;SDS011;72133;42.522;24.800;2024-03-08T02:53:02;18.38;;;12.77;;
82495;SDS011;72133;42.522;24.800;2024-03-08T02:55:28;17.85;;;13.73;;
82495;SDS011;72133;42.522;24.800;2024-03-08T02:57:54;17.92;;;14.40;;
82495;SDS011;72133;42.522;24.800;2024-03-08T03:00:20;18.77;;;13.35;;
82495;SDS011;72133;42.522;24.800;2024-03-08T03:02:51;18.10;;;13.80;;
82495;SDS011;72133;42.522;24.800;2024-03-08T03:05:20;17.00;;;13.65;;
82495;SDS011;72133;42.522;24.800;2024-03-08T03:07:46;17.23;;;13.18;;
82495;SDS011;72133;42.522;24.800;2024-03-08T03:10:12;21.73;;;15.25;;
82495;SDS011;72133;42.522;24.800;2024-03-08T03:12:40;19.38;;;14.90;;
82495;SDS011;72133;42.522;24.800;2024-03-08T03:15:05;19.67;;;13.60;;
82495;SDS011;72133;42.522;24.800;2024-03-08T03:17:32;18.67;;;14.20;;
82495;SDS011;72133;42.522;24.800;2024-03-08T03:19:57;19.63;;;13.93;;
82495;SDS011;72133;42.522;24.800;2024-03-08T03:22:23;17.98;;;14.32;;
82495;SDS011;72133;42.522;24.800;2024-03-08T03:24:50;22.30;;;15.23;;
82495;SDS011;72133;42.522;24.800;2024-03-08T03:27:16;18.98;;;14.20;;
82495;SDS011;72133;42.522;24.800;2024-03-08T03:29:42;20.10;;;14.65;;
82495;SDS011;72133;42.522;24.800;2024-03-08T03:32:13;17.58;;;12.75;;
82495;SDS011;72133;42.522;24.800;2024-03-08T03:34:40;18.75;;;13.65;;
82495;SDS011;72133;42.522;24.800;2024-03-08T03:37:06;17.25;;;13.50;;
82495;SDS011;72133;42.522;24.800;2024-03-08T03:39:37;17.83;;;13.65;;
82495;SDS011;72133;42.522;24.800;2024-03-08T03:42:16;22.65;;;14.65;;
82495;SDS011;72133;42.522;24.800;2024-03-08T03:44:44;18.90;;;14.20;;
82495;SDS011;72133;42.522;24.800;2024-03-08T03:47:12;18.25;;;14.55;;
82495;SDS011;72133;42.522;24.800;2024-03-08T03:49:40;19.50;;;14.82;;
82495;SDS011;72133;42.522;24.800;2024-03-08T03:52:06;19.55;;;14.38;;
82495;SDS011;72133;42.522;24.800;2024-03-08T03:54:31;20.42;;;14.35;;
82495;SDS011;72133;42.522;24.800;2024-03-08T03:56:58;20.60;;;14.55;;
82495;SDS011;72133;42.522;24.800;2024-03-08T03:59:23;22.13;;;14.32;;
82495;SDS011;72133;42.522;24.800;2024-03-08T04:01:49;21.67;;;15.23;;
82495;SDS011;72133;42.522;24.800;2024-03-08T04:04:15;18.75;;;13.85;;
82495;SDS011;72133;42.522;24.800;2024-03-08T04:06:41;20.30;;;14.50;;
82495;SDS011;72133;42.522;24.800;2024-03-08T04:09:07;20.73;;;14.27;;
82495;SDS011;72133;42.522;24.800;2024-03-08T04:11:32;19.40;;;14.38;;
82495;SDS011;72133;42.522;24.800;2024-03-08T04:13:58;20.70;;;14.13;;
82495;SDS011;72133;42.522;24.800;2024-03-08T04:16:24;18.85;;;13.85;;
82495;SDS011;72133;42.522;24.800;2024-03-08T04:18:51;18.15;;;13.55;;
82495;SDS011;72133;42.522;24.800;2024-03-08T04:21:17;19.85;;;14.70;;
82495;SDS011;72133;42.522;24.800;2024-03-08T04:23:44;20.02;;;14.68;;
82495;SDS011;72133;42.522;24.800;2024-03-08T04:26:10;18.02;;;13.77;;
82495;SDS011;72133;42.522;24.800;2024-03-08T04:28:36;19.10;;;14.07;;
82495;SDS011;72133;42.522;24.800;2024-03-08T04:31:03;21.40;;;15.40;;
82495;SDS011;72133;42.522;24.800;2024-03-08T04:33:29;20.88;;;14.35;;
82495;SDS011;72133;42.522;24.800;2024-03-08T04:35:54;22.00;;;14.65;;
82495;SDS011;72133;42.522;24.800;2024-03-08T04:38:20;20.90;;;13.70;;
82495;SDS011;72133;42.522;24.800;2024-03-08T04:40:46;19.00;;;14.00;;
82495;SDS011;72133;42.522;24.800;2024-03-08T04:43:12;18.05;;;14.25;;
82495;SDS011;72133;42.522;24.800;2024-03-08T04:45:37;22.30;;;16.05;;
82495;SDS011;72133;42.522;24.800;2024-03-08T04:48:04;21.42;;;14.88;;
82495;SDS011;72133;42.522;24.800;2024-03-08T04:50:30;20.73;;;15.00;;
82495;SDS011;72133;42.522;24.800;2024-03-08T04:52:55;19.48;;;15.80;;
82495;SDS011;72133;42.522;24.800;2024-03-08T04:55:21;18.88;;;13.88;;
82495;SDS011;72133;42.522;24.800;2024-03-08T04:57:47;22.83;;;15.32;;
82495;SDS011;72133;42.522;24.800;2024-03-08T05:00:13;20.77;;;15.02;;
82495;SDS011;72133;42.522;24.800;2024-03-08T05:02:40;22.15;;;14.65;;
82495;SDS011;72133;42.522;24.800;2024-03-08T05:05:06;21.80;;;15.18;;
82495;SDS011;72133;42.522;24.800;2024-03-08T05:07:33;20.45;;;14.77;;
82495;SDS011;72133;42.522;24.800;2024-03-08T05:10:00;19.38;;;14.73;;
82495;SDS011;72133;42.522;24.800;2024-03-08T05:12:27;19.98;;;14.57;;
82495;SDS011;72133;42.522;24.800;2024-03-08T05:14:53;18.15;;;13.95;;
82495;SDS011;72133;42.522;24.800;2024-03-08T05:17:19;22.35;;;15.52;;
82495;SDS011;72133;42.522;24.800;2024-03-08T05:19:44;19.70;;;13.95;;
82495;SDS011;72133;42.522;24.800;2024-03-08T05:22:10;21.60;;;15.05;;
82495;SDS011;72133;42.522;24.800;2024-03-08T05:24:36;22.38;;;15.60;;
82495;SDS011;72133;42.522;24.800;2024-03-08T05:27:01;21.20;;;15.55;;
82495;SDS011;72133;42.522;24.800;2024-03-08T05:29:28;21.95;;;15.70;;
82495;SDS011;72133;42.522;24.800;2024-03-08T05:31:54;23.30;;;15.80;;
82495;SDS011;72133;42.522;24.800;2024-03-08T05:34:20;23.27;;;16.40;;
82495;SDS011;72133;42.522;24.800;2024-03-08T05:36:47;23.70;;;16.40;;
82495;SDS011;72133;42.522;24.800;2024-03-08T05:39:14;28.20;;;18.63;;
82495;SDS011;72133;42.522;24.800;2024-03-08T05:41:41;28.75;;;19.00;;
82495;SDS011;72133;42.522;24.800;2024-03-08T05:44:07;34.92;;;22.63;;
82495;SDS011;72133;42.522;24.800;2024-03-08T05:46:33;30.38;;;20.10;;
82495;SDS011;72133;42.522;24.800;2024-03-08T05:49:01;33.15;;;20.35;;
82495;SDS011;72133;42.522;24.800;2024-03-08T05:51:33;26.80;;;18.98;;
82495;SDS011;72133;42.522;24.800;2024-03-08T05:54:02;28.77;;;19.98;;
82495;SDS011;72133;42.522;24.800;2024-03-08T05:56:28;28.52;;;19.55;;
82495;SDS011;72133;42.522;24.800;2024-03-08T05:58:57;29.95;;;20.98;;
82495;SDS011;72133;42.522;24.800;2024-03-08T06:01:26;28.63;;;18.80;;
82495;SDS011;72133;42.522;24.800;2024-03-08T06:03:52;26.95;;;19.00;;
82495;SDS011;72133;42.522;24.800;2024-03-08T06:06:20;27.23;;;19.55;;
82495;SDS011;72133;42.522;24.800;2024-03-08T06:08:47;28.25;;;19.55;;
82495;SDS011;72133;42.522;24.800;2024-03-08T06:11:14;29.58;;;19.63;;
82495;SDS011;72133;42.522;24.800;2024-03-08T06:13:40;26.33;;;20.20;;
82495;SDS011;72133;42.522;24.800;2024-03-08T06:16:05;28.30;;;20.50;;
82495;SDS011;72133;42.522;24.800;2024-03-08T06:18:33;27.55;;;18.80;;
82495;SDS011;72133;42.522;24.800;2024-03-08T06:21:02;28.63;;;18.60;;
82495;SDS011;72133;42.522;24.800;2024-03-08T06:23:30;27.80;;;20.05;;
82495;SDS011;72133;42.522;24.800;2024-03-08T06:25:56;33.92;;;20.63;;
82495;SDS011;72133;42.522;24.800;2024-03-08T06:28:22;30.45;;;20.95;;
82495;SDS011;72133;42.522;24.800;2024-03-08T06:30:48;26.10;;;19.55;;
82495;SDS011;72133;42.522;24.800;2024-03-08T06:33:15;28.50;;;19.30;;
82495;SDS011;72133;42.522;24.800;2024-03-08T06:35:41;30.08;;;18.58;;
82495;SDS011;72133;42.522;24.800;2024-03-08T06:38:07;25.88;;;19.05;;
82495;SDS011;72133;42.522;24.800;2024-03-08T06:40:32;29.27;;;18.35;;
82495;SDS011;72133;42.522;24.800;2024-03-08T06:42:58;27.20;;;18.20;;
82495;SDS011;72133;42.522;24.800;2024-03-08T06:45:23;23.58;;;17.02;;
82495;SDS011;72133;42.522;24.800;2024-03-08T06:47:50;25.42;;;18.45;;
82495;SDS011;72133;42.522;24.800;2024-03-08T06:50:16;30.33;;;20.90;;
82495;SDS011;72133;42.522;24.800;2024-03-08T06:52:42;28.65;;;19.27;;
82495;SDS011;72133;42.522;24.800;2024-03-08T06:55:09;28.60;;;19.00;;
82495;SDS011;72133;42.522;24.800;2024-03-08T06:57:39;28.70;;;20.15;;
82495;SDS011;72133;42.522;24.800;2024-03-08T07:00:06;28.98;;;19.27;;
82495;SDS011;72133;42.522;24.800;2024-03-08T07:02:35;32.97;;;21.27;;
82495;SDS011;72133;42.522;24.800;2024-03-08T07:05:01;27.95;;;19.98;;
82495;SDS011;72133;42.522;24.800;2024-03-08T07:07:27;29.00;;;20.58;;
82495;SDS011;72133;42.522;24.800;2024-03-08T07:09:52;29.35;;;21.15;;
82495;SDS011;72133;42.522;24.800;2024-03-08T07:12:18;30.02;;;21.42;;
82495;SDS011;72133;42.522;24.800;2024-03-08T07:14:45;30.80;;;21.27;;
82495;SDS011;72133;42.522;24.800;2024-03-08T07:17:12;29.40;;;21.20;;
82495;SDS011;72133;42.522;24.800;2024-03-08T07:19:37;37.10;;;25.08;;
82495;SDS011;72133;42.522;24.800;2024-03-08T07:22:04;32.55;;;21.60;;
82495;SDS011;72133;42.522;24.800;2024-03-08T07:24:33;30.35;;;20.30;;
82495;SDS011;72133;42.522;24.800;2024-03-08T07:27:30;27.35;;;19.10;;
82495;SDS011;72133;42.522;24.800;2024-03-08T07:29:55;31.83;;;22.25;;
82495;SDS011;72133;42.522;24.800;2024-03-08T07:32:23;30.60;;;20.92;;
82495;SDS011;72133;42.522;24.800;2024-03-08T07:34:50;31.67;;;21.88;;
82495;SDS011;72133;42.522;24.800;2024-03-08T07:37:19;30.58;;;21.42;;
82495;SDS011;72133;42.522;24.800;2024-03-08T07:39:45;28.35;;;20.60;;
82495;SDS011;72133;42.522;24.800;2024-03-08T07:42:11;32.65;;;23.05;;
82495;SDS011;72133;42.522;24.800;2024-03-08T07:44:37;33.72;;;24.25;;
82495;SDS011;72133;42.522;24.800;2024-03-08T07:47:03;28.48;;;20.17;;
82495;SDS011;72133;42.522;24.800;2024-03-08T07:49:29;29.20;;;20.25;;
82495;SDS011;72133;42.522;24.800;2024-03-08T07:51:55;31.92;;;22.58;;
82495;SDS011;72133;42.522;24.800;2024-03-08T07:54:21;30.48;;;21.92;;
82495;SDS011;72133;42.522;24.800;2024-03-08T07:56:47;28.60;;;21.23;;
82495;SDS011;72133;42.522;24.800;2024-03-08T07:59:12;34.72;;;23.00;;
82495;SDS011;72133;42.522;24.800;2024-03-08T08:01:38;36.13;;;24.15;;
82495;SDS011;72133;42.522;24.800;2024-03-08T08:04:04;30.73;;;22.48;;
82495;SDS011;72133;42.522;24.800;2024-03-08T08:06:30;34.10;;;24.33;;
82495;SDS011;72133;42.522;24.800;2024-03-08T08:08:58;38.50;;;25.83;;
82495;SDS011;72133;42.522;24.800;2024-03-08T08:11:27;38.15;;;29.38;;
82495;SDS011;72133;42.522;24.800;2024-03-08T08:13:54;31.98;;;22.98;;
82495;SDS011;72133;42.522;24.800;2024-03-08T08:16:25;33.13;;;22.15;;
82495;SDS011;72133;42.522;24.800;2024-03-08T08:18:51;31.15;;;22.52;;
82495;SDS011;72133;42.522;24.800;2024-03-08T08:21:17;34.17;;;25.30;;
82495;SDS011;72133;42.522;24.800;2024-03-08T08:23:43;38.42;;;26.48;;
82495;SDS011;72133;42.522;24.800;2024-03-08T08:26:10;36.28;;;26.52;;
82495;SDS011;72133;42.522;24.800;2024-03-08T08:28:36;41.00;;;29.23;;
82495;SDS011;72133;42.522;24.800;2024-03-08T08:31:03;41.08;;;28.63;;
82495;SDS011;72133;42.522;24.800;2024-03-08T08:33:29;39.97;;;27.42;;
82495;SDS011;72133;42.522;24.800;2024-03-08T08:35:55;38.33;;;26.02;;
82495;SDS011;72133;42.522;24.800;2024-03-08T08:38:21;31.42;;;23.45;;
82495;SDS011;72133;42.522;24.800;2024-03-08T08:40:47;34.50;;;24.13;;
82495;SDS011;72133;42.522;24.800;2024-03-08T08:43:13;32.83;;;22.52;;
82495;SDS011;72133;42.522;24.800;2024-03-08T08:45:39;31.92;;;22.27;;
82495;SDS011;72133;42.522;24.800;2024-03-08T08:48:05;32.22;;;22.13;;
82495;SDS011;72133;42.522;24.800;2024-03-08T08:50:31;36.15;;;23.90;;
82495;SDS011;72133;42.522;24.800;2024-03-08T08:52:57;35.78;;;23.33;;
82495;SDS011;72133;42.522;24.800;2024-03-08T08:55:23;34.83;;;24.50;;
82495;SDS011;72133;42.522;24.800;2024-03-08T08:57:52;36.80;;;24.90;;
82495;SDS011;72133;42.522;24.800;2024-03-08T09:00:21;31.95;;;22.88;;
82495;SDS011;72133;42.522;24.800;2024-03-08T09:02:49;35.47;;;23.25;;
82495;SDS011;72133;42.522;24.800;2024-03-08T09:05:16;34.75;;;23.75;;
82495;SDS011;72133;42.522;24.800;2024-03-08T09:07:42;34.97;;;23.00;;
82495;SDS011;72133;42.522;24.800;2024-03-08T09:10:10;33.92;;;22.75;;
82495;SDS011;72133;42.522;24.800;2024-03-08T09:12:40;34.92;;;23.95;;
82495;SDS011;72133;42.522;24.800;2024-03-08T09:15:06;33.75;;;22.48;;
82495;SDS011;72133;42.522;24.800;2024-03-08T09:17:46;33.72;;;22.92;;
82495;SDS011;72133;42.522;24.800;2024-03-08T09:20:12;39.35;;;25.92;;
82495;SDS011;72133;42.522;24.800;2024-03-08T09:22:40;36.17;;;24.50;;
82495;SDS011;72133;42.522;24.800;2024-03-08T09:25:09;40.10;;;25.05;;
82495;SDS011;72133;42.522;24.800;2024-03-08T09:27:35;36.85;;;23.98;;
82495;SDS011;72133;42.522;24.800;2024-03-08T09:30:01;38.78;;;25.30;;
82495;SDS011;72133;42.522;24.800;2024-03-08T09:32:26;39.95;;;26.23;;
82495;SDS011;72133;42.522;24.800;2024-03-08T09:34:52;36.85;;;24.90;;
82495;SDS011;72133;42.522;24.800;2024-03-08T09:37:17;37.50;;;24.80;;
82495;SDS011;72133;42.522;24.800;2024-03-08T09:39:44;38.83;;;23.70;;
82495;SDS011;72133;42.522;24.800;2024-03-08T09:42:10;39.45;;;24.20;;
82495;SDS011;72133;42.522;24.800;2024-03-08T09:44:43;37.25;;;26.05;;
82495;SDS011;72133;42.522;24.800;2024-03-08T09:47:15;52.75;;;29.45;;
82495;SDS011;72133;42.522;24.800;2024-03-08T09:49:41;35.70;;;24.83;;
82495;SDS011;72133;42.522;24.800;2024-03-08T09:52:08;38.25;;;26.98;;
82495;SDS011;72133;42.522;24.800;2024-03-08T09:54:35;39.92;;;25.35;;
82495;SDS011;72133;42.522;24.800;2024-03-08T09:57:01;37.58;;;24.90;;
82495;SDS011;72133;42.522;24.800;2024-03-08T09:59:33;36.80;;;25.00;;
82495;SDS011;72133;42.522;24.800;2024-03-08T10:02:01;37.13;;;26.67;;
82495;SDS011;72133;42.522;24.800;2024-03-08T10:04:30;35.08;;;24.38;;
82495;SDS011;72133;42.522;24.800;2024-03-08T10:06:58;36.63;;;25.35;;
82495;SDS011;72133;42.522;24.800;2024-03-08T10:09:24;33.47;;;24.00;;
82495;SDS011;72133;42.522;24.800;2024-03-08T10:11:56;35.53;;;23.58;;
82495;SDS011;72133;42.522;24.800;2024-03-08T10:14:23;37.70;;;24.48;;
82495;SDS011;72133;42.522;24.800;2024-03-08T10:16:49;37.55;;;26.73;;
82495;SDS011;72133;42.522;24.800;2024-03-08T10:19:15;37.22;;;24.23;;
82495;SDS011;72133;42.522;24.800;2024-03-08T10:21:51;37.55;;;25.75;;
82495;SDS011;72133;42.522;24.800;2024-03-08T10:24:19;37.92;;;26.25;;
82495;SDS011;72133;42.522;24.800;2024-03-08T10:26:45;37.78;;;24.67;;
82495;SDS011;72133;42.522;24.800;2024-03-08T10:29:11;43.13;;;28.85;;
82495;SDS011;72133;42.522;24.800;2024-03-08T10:31:42;39.90;;;25.70;;
82495;SDS011;72133;42.522;24.800;2024-03-08T10:34:09;42.10;;;26.92;;
82495;SDS011;72133;42.522;24.800;2024-03-08T10:36:35;39.95;;;26.02;;
82495;SDS011;72133;42.522;24.800;2024-03-08T10:39:03;40.95;;;25.27;;
82495;SDS011;72133;42.522;24.800;2024-03-08T10:41:32;40.13;;;26.17;;
82495;SDS011;72133;42.522;24.800;2024-03-08T10:46:53;34.50;;;24.77;;
82495;SDS011;72133;42.522;24.800;2024-03-08T10:49:30;35.92;;;26.38;;
82495;SDS011;72133;42.522;24.800;2024-03-08T10:52:01;39.72;;;27.05;;
82495;SDS011;72133;42.522;24.800;2024-03-08T10:54:30;41.58;;;28.75;;
82495;SDS011;72133;42.522;24.800;2024-03-08T10:56:59;41.47;;;28.30;;
82495;SDS011;72133;42.522;24.800;2024-03-08T10:59:27;38.10;;;27.98;;
82495;SDS011;72133;42.522;24.800;2024-03-08T11:01:54;35.47;;;27.88;;
82495;SDS011;72133;42.522;24.800;2024-03-08T11:04:20;38.08;;;28.05;;
82495;SDS011;72133;42.522;24.800;2024-03-08T11:06:48;36.70;;;28.10;;
82495;SDS011;72133;42.522;24.800;2024-03-08T11:09:27;40.63;;;28.45;;
82495;SDS011;72133;42.522;24.800;2024-03-08T11:15:00;36.22;;;27.70;;
82495;SDS011;72133;42.522;24.800;2024-03-08T11:20:14;38.30;;;27.10;;
82495;SDS011;72133;42.522;24.800;2024-03-08T11:22:41;36.15;;;26.75;;
82495;SDS011;72133;42.522;24.800;2024-03-08T11:25:15;40.67;;;26.33;;
82495;SDS011;72133;42.522;24.800;2024-03-08T11:28:12;42.17;;;27.38;;
82495;SDS011;72133;42.522;24.800;2024-03-08T11:30:43;38.28;;;28.67;;
82495;SDS011;72133;42.522;24.800;2024-03-08T11:33:11;39.50;;;29.73;;
82495;SDS011;72133;42.522;24.800;2024-03-08T11:35:41;40.90;;;29.08;;
82495;SDS011;72133;42.522;24.800;2024-03-08T11:38:10;43.30;;;29.10;;
82495;SDS011;72133;42.522;24.800;2024-03-08T11:40:35;44.30;;;30.55;;
82495;SDS011;72133;42.522;24.800;2024-03-08T11:43:01;46.70;;;31.08;;
82495;SDS011;72133;42.522;24.800;2024-03-08T11:45:32;39.47;;;27.63;;
82495;SDS011;72133;42.522;24.800;2024-03-08T11:48:02;36.72;;;26.05;;
82495;SDS011;72133;42.522;24.800;2024-03-08T11:50:29;43.13;;;29.40;;
82495;SDS011;72133;42.522;24.800;2024-03-08T11:53:00;41.70;;;28.90;;
82495;SDS011;72133;42.522;24.800;2024-03-08T11:55:27;41.90;;;29.92;;
82495;SDS011;72133;42.522;24.800;2024-03-08T11:57:59;40.35;;;29.48;;
82495;SDS011;72133;42.522;24.800;2024-03-08T12:00:26;38.20;;;27.77;;
82495;SDS011;72133;42.522;24.800;2024-03-08T12:03:02;42.45;;;28.65;;
82495;SDS011;72133;42.522;24.800;2024-03-08T12:05:28;40.00;;;29.33;;
82495;SDS011;72133;42.522;24.800;2024-03-08T12:07:59;43.72;;;30.42;;
82495;SDS011;72133;42.522;24.800;2024-03-08T12:21:33;44.95;;;35.90;;
82495;SDS011;72133;42.522;24.800;2024-03-08T12:24:03;43.85;;;32.35;;
82495;SDS011;72133;42.522;24.800;2024-03-08T12:26:39;41.85;;;30.85;;
82495;SDS011;72133;42.522;24.800;2024-03-08T12:29:18;39.25;;;29.80;;
82495;SDS011;72133;42.522;24.800;2024-03-08T12:31:51;37.78;;;26.88;;
82495;SDS011;72133;42.522;24.800;2024-03-08T12:45:48;37.85;;;29.83;;
82495;SDS011;72133;42.522;24.800;2024-03-08T12:48:14;33.03;;;27.02;;
82495;SDS011;72133;42.522;24.800;2024-03-08T12:50:42;30.67;;;25.88;;
82495;SDS011;72133;42.522;24.800;2024-03-08T12:53:10;33.03;;;25.48;;
82495;SDS011;72133;42.522;24.800;2024-03-08T12:55:36;32.22;;;24.52;;
82495;SDS011;72133;42.522;24.800;2024-03-08T12:58:01;29.17;;;22.77;;
82495;SDS011;72133;42.522;24.800;2024-03-08T13:00:27;31.27;;;22.83;;
82495;SDS011;72133;42.522;24.800;2024-03-08T13:02:53;30.48;;;23.55;;
82495;SDS011;72133;42.522;24.800;2024-03-08T13:05:20;28.20;;;21.85;;
82495;SDS011;72133;42.522;24.800;2024-03-08T13:07:46;32.03;;;23.48;;
82495;SDS011;72133;42.522;24.800;2024-03-08T13:10:15;27.95;;;22.65;;
82495;SDS011;72133;42.522;24.800;2024-03-08T13:12:44;31.27;;;23.02;;
82495;SDS011;72133;42.522;24.800;2024-03-08T13:15:10;30.23;;;23.75;;
82495;SDS011;72133;42.522;24.800;2024-03-08T13:17:40;29.58;;;24.02;;
82495;SDS011;72133;42.522;24.800;2024-03-08T13:20:08;32.35;;;24.13;;
82495;SDS011;72133;42.522;24.800;2024-03-08T13:22:34;32.47;;;23.33;;
82495;SDS011;72133;42.522;24.800;2024-03-08T13:25:01;31.55;;;23.92;;
82495;SDS011;72133;42.522;24.800;2024-03-08T13:27:27;34.47;;;24.45;;
82495;SDS011;72133;42.522;24.800;2024-03-08T13:29:53;32.15;;;23.92;;
82495;SDS011;72133;42.522;24.800;2024-03-08T13:32:18;30.98;;;23.35;;
82495;SDS011;72133;42.522;24.800;2024-03-08T13:34:47;33.53;;;26.65;;
82495;SDS011;72133;42.522;24.800;2024-03-08T13:37:16;37.78;;;27.42;;
82495;SDS011;72133;42.522;24.800;2024-03-08T13:39:42;33.58;;;26.42;;
82495;SDS011;72133;42.522;24.800;2024-03-08T13:42:11;32.70;;;24.48;;
82495;SDS011;72133;42.522;24.800;2024-03-08T13:44:45;37.03;;;27.95;;
82495;SDS011;72133;42.522;24.800;2024-03-08T13:47:14;34.17;;;27.23;;
82495;SDS011;72133;42.522;24.800;2024-03-08T13:49:41;35.08;;;26.98;;
82495;SDS011;72133;42.522;24.800;2024-03-08T13:52:08;36.33;;;29.02;;
82495;SDS011;72133;42.522;24.800;2024-03-08T13:54:35;37.33;;;28.15;;
82495;SDS011;72133;42.522;24.800;2024-03-08T13:57:01;32.63;;;26.83;;
82495;SDS011;72133;42.522;24.800;2024-03-08T13:59:29;39.47;;;29.50;;
82495;SDS011;72133;42.522;24.800;2024-03-08T14:02:01;34.20;;;27.15;;
82495;SDS011;72133;42.522;24.800;2024-03-08T14:04:28;31.10;;;24.88;;
82495;SDS011;72133;42.522;24.800;2024-03-08T14:06:54;34.33;;;26.10;;
82495;SDS011;72133;42.522;24.800;2024-03-08T14:09:23;31.77;;;26.23;;
82495;SDS011;72133;42.522;24.800;2024-03-08T14:11:50;33.53;;;26.48;;
82495;SDS011;72133;42.522;24.800;2024-03-08T14:14:19;33.78;;;25.73;;
82495;SDS011;72133;42.522;24.800;2024-03-08T14:16:48;32.85;;;26.10;;
82495;SDS011;72133;42.522;24.800;2024-03-08T14:19:17;32.40;;;24.65;;
82495;SDS011;72133;42.522;24.800;2024-03-08T14:21:44;33.78;;;25.90;;
82495;SDS011;72133;42.522;24.800;2024-03-08T14:24:09;34.60;;;25.50;;
82495;SDS011;72133;42.522;24.800;2024-03-08T14:38:11;32.70;;;27.30;;
82495;SDS011;72133;42.522;24.800;2024-03-08T14:40:38;29.00;;;23.65;;
82495;SDS011;72133;42.522;24.800;2024-03-08T14:43:04;27.35;;;22.40;;
82495;SDS011;72133;42.522;24.800;2024-03-08T14:45:30;30.25;;;23.30;;
82495;SDS011;72133;42.522;24.800;2024-03-08T14:47:56;26.98;;;21.63;;
82495;SDS011;72133;42.522;24.800;2024-03-08T14:50:23;28.67;;;23.00;;
82495;SDS011;72133;42.522;24.800;2024-03-08T14:52:50;26.90;;;22.88;;